createdAt,value
2022-09-04T00:02:48.589Z,22.80
2022-09-04T00:05:35.535Z,22.80
2022-09-04T00:08:17.743Z,22.80
2022-09-04T00:11:03.573Z,22.80
2022-09-04T00:13:49.119Z,22.80
2022-09-04T00:16:16.519Z,22.80
2022-09-04T00:19:04.703Z,22.80
2022-09-04T00:22:10.928Z,22.80
2022-09-04T00:24:42.801Z,22.80
2022-09-04T00:27:22.240Z,22.80
2022-09-04T00:30:06.420Z,22.80
2022-09-04T00:32:46.051Z,22.70
2022-09-04T00:35:37.030Z,22.70
2022-09-04T00:38:18.028Z,22.70
2022-09-04T00:40:53.494Z,22.70
2022-09-04T00:43:29.831Z,22.70
2022-09-04T00:46:45.455Z,22.70
2022-09-04T00:49:18.482Z,22.70
2022-09-04T00:52:03.736Z,22.70
2022-09-04T00:55:01.395Z,22.70
2022-09-04T00:58:06.177Z,22.70
2022-09-04T01:00:33.994Z,22.70
2022-09-04T01:03:12.905Z,22.70
2022-09-04T01:06:05.219Z,22.70
2022-09-04T01:08:56.714Z,22.70
2022-09-04T01:11:29.963Z,22.70
2022-09-04T01:14:23.413Z,22.60
2022-09-04T01:17:27.545Z,22.60
2022-09-04T01:20:32.458Z,22.60
2022-09-04T01:23:03.038Z,22.60
2022-09-04T01:25:52.345Z,22.60
2022-09-04T01:28:31.584Z,22.60
2022-09-04T01:31:11.729Z,22.60
2022-09-04T01:33:46.399Z,22.60
2022-09-04T01:37:01.350Z,22.60
2022-09-04T01:39:32.203Z,22.60
2022-09-04T01:42:48.340Z,22.50
2022-09-04T01:45:38.669Z,22.60
2022-09-04T01:48:08.223Z,22.60
2022-09-04T01:50:38.446Z,22.50
2022-09-04T01:53:26.463Z,22.50
2022-09-04T01:55:53.834Z,22.50
2022-09-04T01:59:08.746Z,22.50
2022-09-04T02:01:52.673Z,22.50
2022-09-04T02:04:25.982Z,22.50
2022-09-04T02:07:30.873Z,22.50
2022-09-04T02:10:07.961Z,22.50
2022-09-04T02:12:42.614Z,22.50
2022-09-04T02:15:18.977Z,22.50
2022-09-04T02:17:49.197Z,22.40
2022-09-04T02:20:26.117Z,22.50
2022-09-04T02:23:16.297Z,22.50
2022-09-04T02:26:28.586Z,22.50
2022-09-04T02:29:12.586Z,22.50
2022-09-04T02:32:01.868Z,22.40
2022-09-04T02:34:39.704Z,22.40
2022-09-04T02:37:37.756Z,22.40
2022-09-04T02:40:18.459Z,22.40
2022-09-04T02:43:01.386Z,22.40
2022-09-04T02:45:37.320Z,22.40
2022-09-04T02:48:23.465Z,22.40
2022-09-04T02:51:14.086Z,22.40
2022-09-04T02:53:50.471Z,22.40
2022-09-04T02:56:48.532Z,22.40
2022-09-04T02:59:37.307Z,22.40
2022-09-04T03:02:08.695Z,22.40
2022-09-04T03:04:36.113Z,22.30
2022-09-04T03:07:24.706Z,22.30
2022-09-04T03:10:00.627Z,22.30
2022-09-04T03:12:51.432Z,22.30
2022-09-04T03:15:44.389Z,22.30
2022-09-04T03:18:26.809Z,22.30
2022-09-04T03:21:06.537Z,22.30
2022-09-04T03:23:55.867Z,22.30
2022-09-04T03:26:35.604Z,22.30
2022-09-04T03:29:15.154Z,22.30
2022-09-04T03:32:15.403Z,22.30
2022-09-04T03:34:48.305Z,22.30
2022-09-04T03:37:57.923Z,22.30
2022-09-04T03:40:46.889Z,22.30
2022-09-04T03:43:32.800Z,22.20
2022-09-04T03:46:00.272Z,22.20
2022-09-04T03:48:52.926Z,22.20
2022-09-04T03:51:41.765Z,22.20
2022-09-04T03:54:24.475Z,22.20
2022-09-04T03:57:00.532Z,22.20
2022-09-04T04:00:11.932Z,22.20
2022-09-04T04:03:00.590Z,22.20
2022-09-04T04:05:49.172Z,22.20
2022-09-04T04:08:41.879Z,22.20
2022-09-04T04:11:56.845Z,22.10
2022-09-04T04:15:08.233Z,22.20
2022-09-04T04:17:47.978Z,22.10
2022-09-04T04:20:27.048Z,22.10
2022-09-04T04:23:05.515Z,22.10
2022-09-04T04:25:35.758Z,22.10
2022-09-04T04:28:34.107Z,22.10
2022-09-04T04:31:37.227Z,22.10
2022-09-04T04:34:20.045Z,22.10
2022-09-04T04:37:08.795Z,22.10
2022-09-04T04:39:56.702Z,22.10
2022-09-04T04:42:53.464Z,22.10
2022-09-04T04:45:52.119Z,22.10
2022-09-04T04:49:04.599Z,22.00
2022-09-04T04:52:01.331Z,22.00
2022-09-04T04:54:53.102Z,22.00
2022-09-04T04:57:27.077Z,22.00
2022-09-04T05:00:06.652Z,22.00
2022-09-04T05:03:08.862Z,22.00
2022-09-04T05:06:03.099Z,22.00
2022-09-04T05:08:51.818Z,22.00
2022-09-04T05:12:06.958Z,22.00
2022-09-04T05:14:46.160Z,22.00
2022-09-04T05:18:01.940Z,22.00
2022-09-04T05:20:59.981Z,22.00
2022-09-04T05:23:39.870Z,22.00
2022-09-04T05:26:19.295Z,21.90
2022-09-04T05:29:07.678Z,21.90
2022-09-04T05:31:58.363Z,21.90
2022-09-04T05:34:44.361Z,21.90
2022-09-04T05:37:21.517Z,21.90
2022-09-04T05:40:17.613Z,21.90
2022-09-04T05:43:04.606Z,21.90
2022-09-04T05:45:43.836Z,21.90
2022-09-04T05:48:16.916Z,21.90
2022-09-04T05:50:55.082Z,21.90
2022-09-04T05:53:47.194Z,21.90
2022-09-04T05:56:21.942Z,21.90
2022-09-04T05:59:15.357Z,21.90
2022-09-04T06:02:04.200Z,21.90
2022-09-04T06:04:55.856Z,21.90
2022-09-04T06:08:04.362Z,21.80
2022-09-04T06:11:13.745Z,21.80
2022-09-04T06:13:49.887Z,21.80
2022-09-04T06:16:35.877Z,21.80
2022-09-04T06:19:18.694Z,21.80
2022-09-04T06:22:01.566Z,21.80
2022-09-04T06:24:53.449Z,21.80
2022-09-04T06:27:38.741Z,21.80
2022-09-04T06:30:11.556Z,21.80
2022-09-04T06:32:41.752Z,21.80
2022-09-04T06:35:26.813Z,21.80
2022-09-04T06:38:28.841Z,21.80
2022-09-04T06:41:14.391Z,21.80
2022-09-04T06:44:07.575Z,21.80
2022-09-04T06:46:56.355Z,21.80
2022-09-04T06:49:39.115Z,21.70
2022-09-04T06:52:07.692Z,21.70
2022-09-04T06:54:41.274Z,21.70
2022-09-04T06:57:08.727Z,21.70
2022-09-04T06:59:54.771Z,21.70
2022-09-04T07:02:29.261Z,21.70
2022-09-04T07:04:59.743Z,21.70
2022-09-04T07:07:37.287Z,21.80
2022-09-04T07:10:10.737Z,21.80
2022-09-04T07:12:50.060Z,21.70
2022-09-04T07:15:47.661Z,21.70
2022-09-04T07:18:49.623Z,21.70
2022-09-04T07:22:00.282Z,21.70
2022-09-04T07:24:44.513Z,21.80
2022-09-04T07:27:38.314Z,21.80
2022-09-04T07:30:08.461Z,21.70
2022-09-04T07:32:56.907Z,21.70
2022-09-04T07:35:42.990Z,21.80
2022-09-04T07:38:22.183Z,21.80
2022-09-04T07:41:19.967Z,21.70
2022-09-04T07:44:11.125Z,21.80
2022-09-04T07:46:41.540Z,21.80
2022-09-04T07:49:32.307Z,21.70
2022-09-04T07:52:11.982Z,21.80
2022-09-04T07:54:47.969Z,21.80
2022-09-04T07:57:44.685Z,21.70
2022-09-04T08:00:25.580Z,21.80
2022-09-04T08:03:36.465Z,21.80
2022-09-04T08:06:37.815Z,21.80
2022-09-04T08:09:18.843Z,21.80
2022-09-04T08:12:04.957Z,21.80
2022-09-04T08:14:46.051Z,21.80
2022-09-04T08:17:21.009Z,21.80
2022-09-04T08:19:57.783Z,21.80
2022-09-04T08:22:49.324Z,21.80
2022-09-04T08:25:33.564Z,21.80
2022-09-04T08:28:24.611Z,21.80
2022-09-04T08:30:53.146Z,21.80
2022-09-04T08:33:28.749Z,21.80
2022-09-04T08:36:35.589Z,21.80
2022-09-04T08:39:18.404Z,21.90
2022-09-04T08:42:20.005Z,21.90
2022-09-04T08:45:06.756Z,21.90
2022-09-04T08:47:53.631Z,21.90
2022-09-04T08:50:24.313Z,21.90
2022-09-04T08:53:04.130Z,21.90
2022-09-04T08:55:34.445Z,21.90
2022-09-04T08:58:23.593Z,21.90
2022-09-04T09:01:05.329Z,21.90
2022-09-04T09:03:44.920Z,22.00
2022-09-04T09:06:43.012Z,22.00
2022-09-04T09:09:39.694Z,22.00
2022-09-04T09:12:40.949Z,21.90
2022-09-04T09:15:10.174Z,22.00
2022-09-04T09:18:01.314Z,22.00
2022-09-04T09:20:44.071Z,22.00
2022-09-04T09:23:41.777Z,22.00
2022-09-04T09:26:18.005Z,22.00
2022-09-04T09:28:51.537Z,22.00
2022-09-04T09:31:42.934Z,22.00
2022-09-04T09:34:28.756Z,22.00
2022-09-04T09:37:03.004Z,22.10
2022-09-04T09:40:14.093Z,22.10
2022-09-04T09:42:41.476Z,22.10
2022-09-04T09:45:27.637Z,22.10
2022-09-04T09:48:12.859Z,22.10
2022-09-04T09:51:03.585Z,22.10
2022-09-04T09:53:42.705Z,22.10
2022-09-04T09:56:21.167Z,22.10
2022-09-04T09:59:06.196Z,22.10
2022-09-04T10:02:10.451Z,22.20
2022-09-04T10:05:05.433Z,22.20
2022-09-04T10:07:51.428Z,22.20
2022-09-04T10:10:29.544Z,22.20
2022-09-04T10:13:34.141Z,22.20
2022-09-04T10:16:34.541Z,22.30
2022-09-04T10:19:46.585Z,22.30
2022-09-04T10:22:35.789Z,22.30
2022-09-04T10:25:45.992Z,22.20
2022-09-04T10:28:34.483Z,22.30
2022-09-04T10:31:18.982Z,22.30
2022-09-04T10:34:17.136Z,22.30
2022-09-04T10:36:56.054Z,22.40
2022-09-04T10:39:49.015Z,22.30
2022-09-04T10:42:44.459Z,22.40
2022-09-04T10:45:32.923Z,22.40
2022-09-04T10:48:18.474Z,22.40
2022-09-04T10:51:23.776Z,22.40
2022-09-04T10:54:30.527Z,22.40
2022-09-04T10:57:18.619Z,22.50
2022-09-04T11:00:05.626Z,22.50
2022-09-04T11:02:54.524Z,22.50
2022-09-04T11:05:41.507Z,22.50
2022-09-04T11:08:41.842Z,22.50
2022-09-04T11:11:28.042Z,22.50
2022-09-04T11:14:06.515Z,22.60
2022-09-04T11:17:21.457Z,22.60
2022-09-04T11:20:17.557Z,22.60
2022-09-04T11:23:07.339Z,22.60
2022-09-04T11:25:53.733Z,22.70
2022-09-04T11:28:57.118Z,22.70
2022-09-04T11:31:34.251Z,22.70
2022-09-04T11:34:36.948Z,22.70
2022-09-04T11:37:07.121Z,22.70
2022-09-04T11:40:32.370Z,22.70
2022-09-04T11:43:30.558Z,22.80
2022-09-04T11:46:15.333Z,22.80
2022-09-04T11:49:01.395Z,22.80
2022-09-04T11:51:47.578Z,22.80
2022-09-04T11:54:40.656Z,22.90
2022-09-04T11:57:29.141Z,22.90
2022-09-04T11:59:59.703Z,22.90
2022-09-04T12:02:33.340Z,22.90
2022-09-04T12:05:18.221Z,22.90
2022-09-04T12:08:07.378Z,22.90
2022-09-04T12:11:13.471Z,23.00
2022-09-04T12:14:15.326Z,23.00
2022-09-04T12:17:05.618Z,23.10
2022-09-04T12:20:15.004Z,23.10
2022-09-04T12:23:09.104Z,23.00
2022-09-04T12:25:49.956Z,23.10
2022-09-04T12:28:45.161Z,23.10
2022-09-04T12:31:34.133Z,23.10
2022-09-04T12:34:07.662Z,23.10
2022-09-04T12:36:52.221Z,23.20
2022-09-04T12:39:48.308Z,23.20
2022-09-04T12:42:39.121Z,23.20
2022-09-04T12:45:22.216Z,23.20
2022-09-04T12:48:14.003Z,23.20
2022-09-04T12:50:58.115Z,23.30
2022-09-04T12:53:37.993Z,23.30
2022-09-04T12:56:12.434Z,23.30
2022-09-04T12:59:11.480Z,23.30
2022-09-04T13:01:43.839Z,23.30
2022-09-04T13:04:22.676Z,23.40
2022-09-04T13:07:32.095Z,23.40
2022-09-04T13:10:37.571Z,23.40
2022-09-04T13:13:10.576Z,23.50
2022-09-04T13:16:02.592Z,23.50
2022-09-04T13:18:41.291Z,23.50
2022-09-04T13:21:20.406Z,23.50
2022-09-04T13:24:28.189Z,23.50
2022-09-04T13:27:08.076Z,23.50
2022-09-04T13:30:07.742Z,23.60
2022-09-04T13:32:35.363Z,23.60
2022-09-04T13:35:25.156Z,23.60
2022-09-04T13:38:15.501Z,23.60
2022-09-04T13:41:12.638Z,23.70
2022-09-04T13:44:04.495Z,23.70
2022-09-04T13:46:41.176Z,23.70
2022-09-04T13:49:32.582Z,23.70
2022-09-04T13:52:12.724Z,23.70
2022-09-04T13:54:47.131Z,23.80
2022-09-04T13:57:18.522Z,23.80
2022-09-04T13:59:50.149Z,23.80
2022-09-04T14:02:24.668Z,23.80
2022-09-04T14:05:14.585Z,23.80
2022-09-04T14:07:45.500Z,23.80
2022-09-04T14:10:32.221Z,23.90
2022-09-04T14:13:15.531Z,23.90
2022-09-04T14:16:02.058Z,23.90
2022-09-04T14:18:49.113Z,23.90
2022-09-04T14:21:47.641Z,23.90
2022-09-04T14:24:33.061Z,23.90
2022-09-04T14:27:23.677Z,23.90
2022-09-04T14:30:23.259Z,23.90
2022-09-04T14:32:58.041Z,23.90
2022-09-04T14:35:47.050Z,23.90
2022-09-04T14:38:27.360Z,23.90
2022-09-04T14:41:21.204Z,23.90
2022-09-04T14:44:35.898Z,23.90
2022-09-04T14:47:03.486Z,23.90
2022-09-04T14:49:32.113Z,23.90
2022-09-04T14:52:10.525Z,24.00
2022-09-04T14:54:43.707Z,23.90
2022-09-04T14:57:32.723Z,23.90
2022-09-04T15:00:10.309Z,23.90
2022-09-04T15:03:17.471Z,23.90
2022-09-04T15:05:57.057Z,23.90
2022-09-04T15:08:39.502Z,23.90
2022-09-04T15:11:13.390Z,23.90
2022-09-04T15:13:58.562Z,23.90
2022-09-04T15:16:39.872Z,23.90
2022-09-04T15:19:28.583Z,23.90
2022-09-04T15:22:17.171Z,23.90
2022-09-04T15:24:44.619Z,23.90
2022-09-04T15:27:23.867Z,23.90
2022-09-04T15:29:54.558Z,23.90
2022-09-04T15:32:26.060Z,24.00
2022-09-04T15:35:16.915Z,23.90
2022-09-04T15:37:48.288Z,24.00
2022-09-04T15:40:33.414Z,24.00
2022-09-04T15:43:23.085Z,24.00
2022-09-04T15:45:53.332Z,24.00
2022-09-04T15:48:26.541Z,24.00
2022-09-04T15:51:03.809Z,24.10
2022-09-04T15:53:36.860Z,24.00
2022-09-04T15:56:28.818Z,24.10
2022-09-04T15:59:08.760Z,24.00
2022-09-04T16:02:12.802Z,24.10
2022-09-04T16:04:42.499Z,24.10
2022-09-04T16:07:20.395Z,24.10
2022-09-04T16:09:56.571Z,24.00
2022-09-04T16:12:52.177Z,24.10
2022-09-04T16:15:22.615Z,24.10
2022-09-04T16:17:55.199Z,24.10
2022-09-04T16:20:58.603Z,24.10
2022-09-04T16:23:35.798Z,24.10
2022-09-04T16:26:17.775Z,24.10
2022-09-04T16:28:52.972Z,24.10
2022-09-04T16:31:34.802Z,24.20
2022-09-04T16:34:25.159Z,24.20
2022-09-04T16:37:02.158Z,24.20
2022-09-04T16:39:43.899Z,24.20
2022-09-04T16:42:22.132Z,24.20
2022-09-04T16:45:09.593Z,24.20
2022-09-04T16:47:44.072Z,24.20
2022-09-04T16:50:18.170Z,24.20
2022-09-04T16:53:13.334Z,24.20
2022-09-04T16:55:52.566Z,24.20
2022-09-04T16:58:44.104Z,24.20
2022-09-04T17:01:29.867Z,24.30
2022-09-04T17:04:16.014Z,24.30
2022-09-04T17:07:11.180Z,24.30
2022-09-04T17:10:05.073Z,24.20
2022-09-04T17:12:48.827Z,24.20
2022-09-04T17:15:26.814Z,24.20
2022-09-04T17:17:54.851Z,24.20
2022-09-04T17:22:09.838Z,24.20
2022-09-04T17:29:02.631Z,24.20
2022-09-04T17:29:13.592Z,24.20
2022-09-04T17:29:46.300Z,24.20
2022-09-04T17:32:24.224Z,24.20
2022-09-04T17:40:39.969Z,24.20
2022-09-04T17:40:57.400Z,24.20
2022-09-04T17:41:36.341Z,24.10
2022-09-04T17:44:11.598Z,24.10
2022-09-04T17:46:45.238Z,24.20
2022-09-04T17:49:34.263Z,24.20
2022-09-04T17:52:09.659Z,24.20
2022-09-04T17:54:49.041Z,24.10
2022-09-04T17:57:28.700Z,24.10
2022-09-04T18:00:18.629Z,24.10
2022-09-04T18:03:16.653Z,24.10
2022-09-04T18:05:53.093Z,24.10
2022-09-04T18:08:55.611Z,24.10
2022-09-04T18:11:33.568Z,24.10
2022-09-04T18:14:39.714Z,24.10
2022-09-04T18:17:25.385Z,24.10
2022-09-04T18:20:05.953Z,24.10
2022-09-04T18:22:39.504Z,24.10
2022-09-04T18:25:29.722Z,24.10
2022-09-04T18:28:11.452Z,24.10
2022-09-04T18:37:10.234Z,24.10
2022-09-04T18:37:22.647Z,24.20
2022-09-04T18:37:44.840Z,24.20
2022-09-04T18:43:18.219Z,24.20
2022-09-04T18:50:23.558Z,24.10
2022-09-04T18:50:33.212Z,24.10
2022-09-04T18:50:38.246Z,24.20
2022-09-04T18:52:21.509Z,24.10
2022-09-04T18:54:55.696Z,24.20
2022-09-04T18:57:49.134Z,24.20
2022-09-04T19:00:26.302Z,24.20
2022-09-04T19:03:20.406Z,24.10
2022-09-04T19:05:51.936Z,24.20
2022-09-04T19:08:42.596Z,24.20
2022-09-04T19:11:21.031Z,24.20
2022-09-04T19:14:21.066Z,24.20
2022-09-04T19:17:21.640Z,24.20
2022-09-04T19:19:54.680Z,24.20
2022-09-04T19:22:38.212Z,24.20
2022-09-04T19:25:13.980Z,24.20
2022-09-04T19:27:43.334Z,24.20
2022-09-04T19:30:23.944Z,24.20
2022-09-04T19:33:40.389Z,24.20
2022-09-04T19:36:12.035Z,24.20
2022-09-04T19:42:07.450Z,24.20
2022-09-04T19:46:05.353Z,24.10
2022-09-04T19:46:17.656Z,24.10
2022-09-04T19:47:42.722Z,24.20
2022-09-04T19:52:35.002Z,24.20
2022-09-04T19:53:39.087Z,24.20
2022-09-04T19:56:26.013Z,24.20
2022-09-04T19:59:21.396Z,24.10
2022-09-04T20:01:58.103Z,24.20
2022-09-04T20:04:33.826Z,24.20
2022-09-04T20:07:13.328Z,24.10
2022-09-04T20:09:46.118Z,24.20
2022-09-04T20:12:16.582Z,24.20
2022-09-04T20:14:59.006Z,24.10
2022-09-04T20:17:45.038Z,24.20
2022-09-04T20:20:23.366Z,24.20
2022-09-04T20:22:56.498Z,24.20
2022-09-04T20:25:40.623Z,24.10
2022-09-04T20:28:32.807Z,24.10
2022-09-04T20:31:35.401Z,24.10
2022-09-04T20:34:21.952Z,24.10
2022-09-04T20:37:13.770Z,24.10
2022-09-04T20:39:48.834Z,24.00
2022-09-04T20:42:30.028Z,24.00
2022-09-04T20:47:35.231Z,24.00
2022-09-04T20:52:43.430Z,23.90
2022-09-04T20:52:59.377Z,24.00
2022-09-04T20:54:09.818Z,23.90
2022-09-04T21:00:28.289Z,23.90
2022-09-04T21:03:09.236Z,23.90
2022-09-04T21:03:19.143Z,23.90
2022-09-04T21:06:17.986Z,23.90
2022-09-04T21:09:17.604Z,23.90
2022-09-04T21:11:53.546Z,23.90
2022-09-04T21:14:45.997Z,23.90
2022-09-04T21:17:34.345Z,23.90
2022-09-04T21:20:27.660Z,23.80
2022-09-04T21:23:40.976Z,23.80
2022-09-04T21:26:33.867Z,23.80
2022-09-04T21:29:13.199Z,23.80
2022-09-04T21:32:14.806Z,23.80
2022-09-04T21:34:57.534Z,23.80
2022-09-04T21:37:27.711Z,23.80
2022-09-04T21:40:49.883Z,23.80
2022-09-04T21:43:47.400Z,23.80
2022-09-04T21:46:36.455Z,23.80
2022-09-04T21:49:31.554Z,23.70
2022-09-04T21:52:24.757Z,23.80
2022-09-04T21:57:45.790Z,23.70
2022-09-04T22:02:29.034Z,23.70
2022-09-04T22:02:49.205Z,23.70
2022-09-04T22:05:22.176Z,23.70
2022-09-04T22:13:20.590Z,23.70
2022-09-04T22:13:31.819Z,23.70
2022-09-04T22:14:42.994Z,23.70
2022-09-04T22:17:13.161Z,23.60
2022-09-04T22:19:55.673Z,23.60
2022-09-04T22:22:58.934Z,23.60
2022-09-04T22:25:47.163Z,23.60
2022-09-04T22:28:45.628Z,23.60
2022-09-04T22:31:25.007Z,23.60
2022-09-04T22:34:22.846Z,23.60
2022-09-04T22:37:12.037Z,23.60
2022-09-04T22:39:54.394Z,23.60
2022-09-04T22:42:40.655Z,23.60
2022-09-04T22:45:30.054Z,23.60
2022-09-04T22:48:03.381Z,23.60
2022-09-04T22:50:56.580Z,23.60
2022-09-04T22:53:39.147Z,23.60
2022-09-04T22:56:24.293Z,23.60
2022-09-04T22:59:25.924Z,23.60
2022-09-04T23:03:04.141Z,23.60
2022-09-04T23:05:36.666Z,23.60
2022-09-04T23:13:48.667Z,23.50
2022-09-04T23:14:02.935Z,23.50
2022-09-04T23:14:44.801Z,23.60
2022-09-04T23:17:25.838Z,23.50
2022-09-04T23:26:31.684Z,23.50
2022-09-04T23:26:45.679Z,23.50
2022-09-04T23:26:46.440Z,23.50
2022-09-04T23:29:17.451Z,23.50
2022-09-04T23:32:13.368Z,23.50
2022-09-04T23:35:34.680Z,23.50
2022-09-04T23:38:41.575Z,23.50
2022-09-04T23:41:52.633Z,23.50
2022-09-04T23:44:51.523Z,23.50
2022-09-04T23:47:54.264Z,23.50
2022-09-04T23:50:47.373Z,23.50
2022-09-04T23:53:31.401Z,23.50
2022-09-04T23:56:07.539Z,23.50
2022-09-04T23:58:56.113Z,23.50
